sensor_id;sensor_type;location;lat;lon;timestamp;pressure;altitude;pressure_sealevel;temperature;humidity
36260;BME280;22296;50.824;5.644;2023-04-06T00:02:09;100911.44;;;13.85;57.56
36260;BME280;22296;50.824;5.644;2023-04-06T00:04:36;100919.25;;;13.83;57.82
36260;BME280;22296;50.824;5.644;2023-04-06T00:07:03;100912.06;;;13.82;57.72
36260;BME280;22296;50.824;5.644;2023-04-06T00:09:29;100908.81;;;13.80;57.76
36260;BME280;22296;50.824;5.644;2023-04-06T00:11:56;100900.78;;;13.79;57.61
36260;BME280;22296;50.824;5.644;2023-04-06T00:14:24;100905.00;;;13.76;57.90
36260;BME280;22296;50.824;5.644;2023-04-06T00:16:50;100896.69;;;13.76;57.74
36260;BME280;22296;50.824;5.644;2023-04-06T00:19:17;100896.19;;;13.74;57.86
36260;BME280;22296;50.824;5.644;2023-04-06T00:21:44;100892.88;;;13.72;57.96
36260;BME280;22296;50.824;5.644;2023-04-06T00:24:11;100888.47;;;13.71;57.96
36260;BME280;22296;50.824;5.644;2023-04-06T00:26:37;100890.72;;;13.69;57.99
36260;BME280;22296;50.824;5.644;2023-04-06T00:29:04;100894.66;;;13.68;57.90
36260;BME280;22296;50.824;5.644;2023-04-06T00:31:31;100895.25;;;13.65;58.03
36260;BME280;22296;50.824;5.644;2023-04-06T00:33:58;100881.41;;;13.65;58.01
36260;BME280;22296;50.824;5.644;2023-04-06T00:36:24;100886.44;;;13.63;58.23
36260;BME280;22296;50.824;5.644;2023-04-06T00:38:52;100879.03;;;13.58;58.25
36260;BME280;22296;50.824;5.644;2023-04-06T00:41:18;100879.03;;;13.58;58.22
36260;BME280;22296;50.824;5.644;2023-04-06T00:43:46;100874.34;;;13.59;58.29
36260;BME280;22296;50.824;5.644;2023-04-06T00:46:13;100876.59;;;13.57;58.30
36260;BME280;22296;50.824;5.644;2023-04-06T00:48:40;100873.84;;;13.57;58.21
36260;BME280;22296;50.824;5.644;2023-04-06T00:51:07;100871.69;;;13.54;58.61
36260;BME280;22296;50.824;5.644;2023-04-06T00:53:33;100871.69;;;13.54;58.40
36260;BME280;22296;50.824;5.644;2023-04-06T00:56:01;100874.75;;;13.52;58.57
36260;BME280;22296;50.824;5.644;2023-04-06T00:58:34;100870.66;;;13.50;58.24
36260;BME280;22296;50.824;5.644;2023-04-06T01:01:06;100864.28;;;13.49;58.50
36260;BME280;22296;50.824;5.644;2023-04-06T01:03:34;100863.44;;;13.49;58.51
36260;BME280;22296;50.824;5.644;2023-04-06T01:06:01;100862.94;;;13.47;58.46
36260;BME280;22296;50.824;5.644;2023-04-06T01:08:34;100862.44;;;13.45;58.61
36260;BME280;22296;50.824;5.644;2023-04-06T01:11:27;100853.94;;;13.41;58.67
36260;BME280;22296;50.824;5.644;2023-04-06T01:13:54;100857.53;;;13.42;58.59
36260;BME280;22296;50.824;5.644;2023-04-06T01:16:25;100846.25;;;13.38;58.58
36260;BME280;22296;50.824;5.644;2023-04-06T01:19:08;100850.16;;;13.37;58.70
36260;BME280;22296;50.824;5.644;2023-04-06T01:21:36;100851.56;;;13.35;58.77
36260;BME280;22296;50.824;5.644;2023-04-06T01:24:29;100856.81;;;13.36;58.80
36260;BME280;22296;50.824;5.644;2023-04-06T01:27:11;100849.94;;;13.34;58.69
36260;BME280;22296;50.824;5.644;2023-04-06T01:29:52;100847.78;;;13.31;58.90
36260;BME280;22296;50.824;5.644;2023-04-06T01:32:51;100845.13;;;13.26;58.97
36260;BME280;22296;50.824;5.644;2023-04-06T01:35:35;100839.88;;;13.24;59.02
36260;BME280;22296;50.824;5.644;2023-04-06T01:38:14;100839.38;;;13.22;59.01
36260;BME280;22296;50.824;5.644;2023-04-06T01:40:42;100841.13;;;13.18;59.32
36260;BME280;22296;50.824;5.644;2023-04-06T01:43:09;100832.53;;;13.20;59.12
36260;BME280;22296;50.824;5.644;2023-04-06T01:45:56;100832.53;;;13.20;59.25
36260;BME280;22296;50.824;5.644;2023-04-06T01:48:28;100831.81;;;13.14;59.27
36260;BME280;22296;50.824;5.644;2023-04-06T01:50:55;100833.44;;;13.15;59.34
36260;BME280;22296;50.824;5.644;2023-04-06T01:53:28;100834.88;;;13.12;59.26
36260;BME280;22296;50.824;5.644;2023-04-06T01:56:00;100825.72;;;13.12;59.39
36260;BME280;22296;50.824;5.644;2023-04-06T01:58:33;100827.19;;;13.09;59.50
36260;BME280;22296;50.824;5.644;2023-04-06T02:01:00;100823.91;;;13.07;59.37
36260;BME280;22296;50.824;5.644;2023-04-06T02:03:32;100820.28;;;13.07;59.61
36260;BME280;22296;50.824;5.644;2023-04-06T02:06:05;100817.50;;;13.07;59.48
36260;BME280;22296;50.824;5.644;2023-04-06T02:08:37;100821.72;;;13.04;59.51
36260;BME280;22296;50.824;5.644;2023-04-06T02:11:03;100826.75;;;13.02;59.69
36260;BME280;22296;50.824;5.644;2023-04-06T02:13:37;100819.25;;;13.03;59.63
36260;BME280;22296;50.824;5.644;2023-04-06T02:16:04;100817.91;;;13.00;59.64
36260;BME280;22296;50.824;5.644;2023-04-06T02:18:31;100811.88;;;12.98;59.62
36260;BME280;22296;50.824;5.644;2023-04-06T02:20:58;100809.31;;;13.02;59.54
36260;BME280;22296;50.824;5.644;2023-04-06T02:23:24;100811.38;;;12.96;59.63
36260;BME280;22296;50.824;5.644;2023-04-06T02:25:52;100803.34;;;12.95;59.47
36260;BME280;22296;50.824;5.644;2023-04-06T02:28:18;100801.91;;;12.97;59.52
36260;BME280;22296;50.824;5.644;2023-04-06T02:30:45;100803.16;;;12.91;59.86
36260;BME280;22296;50.824;5.644;2023-04-06T02:33:13;100799.25;;;12.92;59.68
36260;BME280;22296;50.824;5.644;2023-04-06T02:35:44;100798.75;;;12.90;59.65
36260;BME280;22296;50.824;5.644;2023-04-06T02:38:11;100792.72;;;12.88;59.88
36260;BME280;22296;50.824;5.644;2023-04-06T02:40:38;100788.59;;;12.86;59.93
36260;BME280;22296;50.824;5.644;2023-04-06T02:43:14;100786.66;;;12.86;59.86
36260;BME280;22296;50.824;5.644;2023-04-06T02:45:44;100780.59;;;12.84;59.95
36260;BME280;22296;50.824;5.644;2023-04-06T02:48:11;100783.38;;;12.84;59.91
36260;BME280;22296;50.824;5.644;2023-04-06T02:50:38;100774.56;;;12.82;59.83
36260;BME280;22296;50.824;5.644;2023-04-06T02:53:06;100777.34;;;12.82;60.03
36260;BME280;22296;50.824;5.644;2023-04-06T02:55:35;100773.25;;;12.80;60.00
36260;BME280;22296;50.824;5.644;2023-04-06T02:58:02;100777.94;;;12.79;59.96
36260;BME280;22296;50.824;5.644;2023-04-06T03:00:36;100774.63;;;12.77;60.22
36260;BME280;22296;50.824;5.644;2023-04-06T03:03:03;100770.16;;;12.81;59.75
36260;BME280;22296;50.824;5.644;2023-04-06T03:05:30;100767.50;;;12.76;60.04
36260;BME280;22296;50.824;5.644;2023-04-06T03:07:57;100767.50;;;12.76;60.09
36260;BME280;22296;50.824;5.644;2023-04-06T03:10:36;100765.84;;;12.75;60.01
36260;BME280;22296;50.824;5.644;2023-04-06T03:13:03;100773.03;;;12.76;59.92
36260;BME280;22296;50.824;5.644;2023-04-06T03:15:59;100760.31;;;12.75;59.96
36260;BME280;22296;50.824;5.644;2023-04-06T03:18:26;100765.84;;;12.75;60.07
36260;BME280;22296;50.824;5.644;2023-04-06T03:20:55;100762.56;;;12.73;59.90
36260;BME280;22296;50.824;5.644;2023-04-06T03:23:28;100763.19;;;12.70;60.22
36260;BME280;22296;50.824;5.644;2023-04-06T03:25:58;100759.59;;;12.70;59.99
36260;BME280;22296;50.824;5.644;2023-04-06T03:28:24;100754.06;;;12.70;60.28
36260;BME280;22296;50.824;5.644;2023-04-06T03:30:57;100756.00;;;12.69;60.08
36260;BME280;22296;50.824;5.644;2023-04-06T03:33:50;100750.47;;;12.69;60.23
36260;BME280;22296;50.824;5.644;2023-04-06T03:36:24;100758.75;;;12.69;60.23
36260;BME280;22296;50.824;5.644;2023-04-06T03:38:54;100755.16;;;12.69;59.98
36260;BME280;22296;50.824;5.644;2023-04-06T03:41:21;100750.25;;;12.66;60.16
36260;BME280;22296;50.824;5.644;2023-04-06T03:43:55;100755.28;;;12.64;60.02
36260;BME280;22296;50.824;5.644;2023-04-06T03:46:22;100753.56;;;12.68;60.16
36260;BME280;22296;50.824;5.644;2023-04-06T03:48:52;100752.50;;;12.64;60.21
36260;BME280;22296;50.824;5.644;2023-04-06T03:51:20;100746.16;;;12.63;60.18
36260;BME280;22296;50.824;5.644;2023-04-06T03:53:47;100746.16;;;12.63;60.22
36260;BME280;22296;50.824;5.644;2023-04-06T03:56:14;100742.28;;;12.64;60.02
36260;BME280;22296;50.824;5.644;2023-04-06T03:58:41;100740.63;;;12.63;60.24
36260;BME280;22296;50.824;5.644;2023-04-06T04:01:07;100748.91;;;12.63;60.33
36260;BME280;22296;50.824;5.644;2023-04-06T04:03:34;100749.53;;;12.60;60.41
36260;BME280;22296;50.824;5.644;2023-04-06T04:06:00;100747.31;;;12.62;60.18
36260;BME280;22296;50.824;5.644;2023-04-06T04:08:27;100745.97;;;12.60;60.28
36260;BME280;22296;50.824;5.644;2023-04-06T04:10:54;100752.13;;;12.56;60.08
36260;BME280;22296;50.824;5.644;2023-04-06T04:13:21;100752.63;;;12.58;60.41
36260;BME280;22296;50.824;5.644;2023-04-06T04:15:50;100754.56;;;12.58;60.47
36260;BME280;22296;50.824;5.644;2023-04-06T04:18:17;100750.13;;;12.57;60.37
36260;BME280;22296;50.824;5.644;2023-04-06T04:20:43;100747.38;;;12.57;60.45
36260;BME280;22296;50.824;5.644;2023-04-06T04:23:11;100749.63;;;12.55;60.33
36260;BME280;22296;50.824;5.644;2023-04-06T04:25:38;100748.53;;;12.56;60.50
36260;BME280;22296;50.824;5.644;2023-04-06T04:28:05;100748.81;;;12.54;60.30
36260;BME280;22296;50.824;5.644;2023-04-06T04:30:32;100750.13;;;12.57;60.34
36260;BME280;22296;50.824;5.644;2023-04-06T04:32:58;100748.81;;;12.54;60.38
36260;BME280;22296;50.824;5.644;2023-04-06T04:35:26;100757.44;;;12.53;60.32
36260;BME280;22296;50.824;5.644;2023-04-06T04:37:53;100761.84;;;12.54;60.47
36260;BME280;22296;50.824;5.644;2023-04-06T04:40:19;100756.00;;;12.55;60.41
36260;BME280;22296;50.824;5.644;2023-04-06T04:42:51;100749.41;;;12.51;60.58
36260;BME280;22296;50.824;5.644;2023-04-06T04:45:27;100751.69;;;12.49;60.49
36260;BME280;22296;50.824;5.644;2023-04-06T04:47:55;100746.97;;;12.50;60.52
36260;BME280;22296;50.824;5.644;2023-04-06T04:50:25;100744.22;;;12.50;60.53
36260;BME280;22296;50.824;5.644;2023-04-06T04:52:56;100742.88;;;12.47;60.49
36260;BME280;22296;50.824;5.644;2023-04-06T04:55:24;100734.25;;;12.49;60.35
36260;BME280;22296;50.824;5.644;2023-04-06T04:57:54;100739.28;;;12.47;60.51
36260;BME280;22296;50.824;5.644;2023-04-06T05:00:29;100745.66;;;12.47;60.58
36260;BME280;22296;50.824;5.644;2023-04-06T05:02:58;100738.78;;;12.45;60.61
36260;BME280;22296;50.824;5.644;2023-04-06T05:05:28;100745.94;;;12.46;60.37
36260;BME280;22296;50.824;5.644;2023-04-06T05:07:56;100747.59;;;12.47;60.54
36260;BME280;22296;50.824;5.644;2023-04-06T05:10:36;100739.56;;;12.45;60.46
36260;BME280;22296;50.824;5.644;2023-04-06T05:13:04;100745.09;;;12.45;60.51
36260;BME280;22296;50.824;5.644;2023-04-06T05:15:30;100749.84;;;12.45;60.56
36260;BME280;22296;50.824;5.644;2023-04-06T05:18:04;100746.75;;;12.46;60.43
36260;BME280;22296;50.824;5.644;2023-04-06T05:20:33;100745.94;;;12.46;60.46
36260;BME280;22296;50.824;5.644;2023-04-06T05:23:01;100748.19;;;12.44;60.45
36260;BME280;22296;50.824;5.644;2023-04-06T05:25:29;100739.41;;;12.42;60.66
36260;BME280;22296;50.824;5.644;2023-04-06T05:28:01;100746.53;;;12.43;60.44
36260;BME280;22296;50.824;5.644;2023-04-06T05:30:32;100744.94;;;12.42;60.48
36260;BME280;22296;50.824;5.644;2023-04-06T05:32:58;100748.81;;;12.41;60.47
36260;BME280;22296;50.824;5.644;2023-04-06T05:35:32;100736.09;;;12.40;60.63
36260;BME280;22296;50.824;5.644;2023-04-06T05:38:09;100744.38;;;12.40;60.67
36260;BME280;22296;50.824;5.644;2023-04-06T05:40:37;100744.94;;;12.42;60.59
36260;BME280;22296;50.824;5.644;2023-04-06T05:43:07;100733.84;;;12.42;60.42
36260;BME280;22296;50.824;5.644;2023-04-06T05:45:36;100738.25;;;12.43;60.38
36260;BME280;22296;50.824;5.644;2023-04-06T05:48:05;100736.09;;;12.40;60.59
36260;BME280;22296;50.824;5.644;2023-04-06T05:50:32;100734.97;;;12.41;60.40
36260;BME280;22296;50.824;5.644;2023-04-06T05:52:59;100736.09;;;12.40;60.35
36260;BME280;22296;50.824;5.644;2023-04-06T05:55:32;100741.53;;;12.45;60.34
36260;BME280;22296;50.824;5.644;2023-04-06T05:58:12;100741.00;;;12.43;60.31
36260;BME280;22296;50.824;5.644;2023-04-06T06:00:40;100740.22;;;12.42;60.53
36260;BME280;22296;50.824;5.644;2023-04-06T06:03:10;100737.75;;;12.41;60.35
36260;BME280;22296;50.824;5.644;2023-04-06T06:05:39;100742.78;;;12.39;60.60
36260;BME280;22296;50.824;5.644;2023-04-06T06:08:10;100740.28;;;12.37;60.64
36260;BME280;22296;50.824;5.644;2023-04-06T06:10:38;100738.34;;;12.38;60.68
36260;BME280;22296;50.824;5.644;2023-04-06T06:13:06;100733.66;;;12.38;60.44
36260;BME280;22296;50.824;5.644;2023-04-06T06:15:32;100738.34;;;12.38;60.60
36260;BME280;22296;50.824;5.644;2023-04-06T06:18:00;100740.81;;;12.39;60.43
36260;BME280;22296;50.824;5.644;2023-04-06T06:20:29;100737.75;;;12.41;60.25
36260;BME280;22296;50.824;5.644;2023-04-06T06:22:59;100738.56;;;12.41;60.46
36260;BME280;22296;50.824;5.644;2023-04-06T06:25:26;100734.38;;;12.44;60.27
36260;BME280;22296;50.824;5.644;2023-04-06T06:27:53;100736.31;;;12.43;60.20
36260;BME280;22296;50.824;5.644;2023-04-06T06:30:19;100727.19;;;12.43;60.28
36260;BME280;22296;50.824;5.644;2023-04-06T06:32:49;100729.44;;;12.41;60.09
36260;BME280;22296;50.824;5.644;2023-04-06T06:35:16;100730.28;;;12.41;60.28
36260;BME280;22296;50.824;5.644;2023-04-06T06:37:43;100732.22;;;12.41;60.09
36260;BME280;22296;50.824;5.644;2023-04-06T06:40:13;100726.19;;;12.39;60.45
36260;BME280;22296;50.824;5.644;2023-04-06T06:42:43;100730.56;;;12.40;60.23
36260;BME280;22296;50.824;5.644;2023-04-06T06:45:19;100732.22;;;12.41;59.90
36260;BME280;22296;50.824;5.644;2023-04-06T06:47:46;100728.94;;;12.39;60.04
36260;BME280;22296;50.824;5.644;2023-04-06T06:50:13;100725.84;;;12.40;59.88
36260;BME280;22296;50.824;5.644;2023-04-06T06:52:40;100727.28;;;12.38;59.84
36260;BME280;22296;50.824;5.644;2023-04-06T06:55:09;100729.75;;;12.39;59.97
36260;BME280;22296;50.824;5.644;2023-04-06T06:57:36;100727.28;;;12.38;59.88
36260;BME280;22296;50.824;5.644;2023-04-06T07:00:03;100724.03;;;12.36;59.85
36260;BME280;22296;50.824;5.644;2023-04-06T07:02:33;100725.63;;;12.37;60.10
36260;BME280;22296;50.824;5.644;2023-04-06T07:05:01;100725.63;;;12.37;59.67
36260;BME280;22296;50.824;5.644;2023-04-06T07:07:41;100724.03;;;12.36;59.78
36260;BME280;22296;50.824;5.644;2023-04-06T07:10:08;100730.88;;;12.38;59.95
36260;BME280;22296;50.824;5.644;2023-04-06T07:12:37;100728.94;;;12.39;59.64
36260;BME280;22296;50.824;5.644;2023-04-06T07:15:04;100725.84;;;12.40;59.51
36260;BME280;22296;50.824;5.644;2023-04-06T07:17:32;100720.56;;;12.71;59.41
36260;BME280;22296;50.824;5.644;2023-04-06T07:19:59;100722.66;;;13.01;59.03
36260;BME280;22296;50.824;5.644;2023-04-06T07:22:26;100720.69;;;13.29;58.37
36260;BME280;22296;50.824;5.644;2023-04-06T07:24:52;100720.13;;;13.41;57.97
36260;BME280;22296;50.824;5.644;2023-04-06T07:27:19;100722.06;;;13.54;57.89
36260;BME280;22296;50.824;5.644;2023-04-06T07:29:46;100725.72;;;13.63;57.57
36260;BME280;22296;50.824;5.644;2023-04-06T07:32:12;100734.53;;;13.65;57.69
36260;BME280;22296;50.824;5.644;2023-04-06T07:34:39;100735.22;;;13.70;57.45
36260;BME280;22296;50.824;5.644;2023-04-06T07:37:06;100729.13;;;13.82;57.22
36260;BME280;22296;50.824;5.644;2023-04-06T07:39:33;100738.47;;;13.95;56.93
36260;BME280;22296;50.824;5.644;2023-04-06T07:42:01;100730.81;;;14.14;56.35
36260;BME280;22296;50.824;5.644;2023-04-06T07:44:28;100737.47;;;14.13;55.94
36260;BME280;22296;50.824;5.644;2023-04-06T07:46:55;100729.16;;;14.13;55.91
36260;BME280;22296;50.824;5.644;2023-04-06T07:49:22;100730.84;;;14.22;55.62
36260;BME280;22296;50.824;5.644;2023-04-06T07:51:49;100724.53;;;14.31;55.38
36260;BME280;22296;50.824;5.644;2023-04-06T07:54:16;100727.38;;;14.39;54.95
36260;BME280;22296;50.824;5.644;2023-04-06T07:56:43;100729.81;;;14.41;55.04
36260;BME280;22296;50.824;5.644;2023-04-06T07:59:10;100727.91;;;14.50;54.99
36260;BME280;22296;50.824;5.644;2023-04-06T08:01:38;100726.81;;;14.59;54.64
36260;BME280;22296;50.824;5.644;2023-04-06T08:04:04;100731.25;;;14.69;54.51
36260;BME280;22296;50.824;5.644;2023-04-06T08:06:31;100721.97;;;14.73;54.36
36260;BME280;22296;50.824;5.644;2023-04-06T08:08:58;100729.31;;;14.78;54.26
36260;BME280;22296;50.824;5.644;2023-04-06T08:11:25;100731.44;;;14.81;54.04
36260;BME280;22296;50.824;5.644;2023-04-06T08:13:53;100736.06;;;14.86;54.10
36260;BME280;22296;50.824;5.644;2023-04-06T08:16:19;100729.53;;;14.90;54.05
36260;BME280;22296;50.824;5.644;2023-04-06T08:18:46;100733.31;;;14.94;53.99
36260;BME280;22296;50.824;5.644;2023-04-06T08:21:13;100741.81;;;14.98;53.94
36260;BME280;22296;50.824;5.644;2023-04-06T08:23:40;100739.34;;;14.96;53.87
36260;BME280;22296;50.824;5.644;2023-04-06T08:26:06;100738.50;;;14.96;53.96
36260;BME280;22296;50.824;5.644;2023-04-06T08:28:33;100731.69;;;15.02;53.84
36260;BME280;22296;50.824;5.644;2023-04-06T08:31:06;100734.63;;;15.05;53.68
36260;BME280;22296;50.824;5.644;2023-04-06T08:33:33;100732.84;;;15.01;54.36
36260;BME280;22296;50.824;5.644;2023-04-06T08:36:11;100734.84;;;15.26;53.90
36260;BME280;22296;50.824;5.644;2023-04-06T08:38:39;100737.63;;;15.34;53.67
36260;BME280;22296;50.824;5.644;2023-04-06T08:41:10;100739.91;;;15.41;53.54
36260;BME280;22296;50.824;5.644;2023-04-06T08:43:47;100734.41;;;15.50;53.49
36260;BME280;22296;50.824;5.644;2023-04-06T08:46:13;100748.13;;;15.55;53.52
36260;BME280;22296;50.824;5.644;2023-04-06T08:48:41;100743.22;;;15.60;53.35
36260;BME280;22296;50.824;5.644;2023-04-06T08:51:09;100738.97;;;15.63;53.19
36260;BME280;22296;50.824;5.644;2023-04-06T08:53:36;100739.47;;;15.48;53.34
36260;BME280;22296;50.824;5.644;2023-04-06T08:56:03;100743.88;;;15.49;53.45
36260;BME280;22296;50.824;5.644;2023-04-06T08:58:37;100735.06;;;15.47;53.36
36260;BME280;22296;50.824;5.644;2023-04-06T09:01:06;100748.41;;;15.45;53.43
36260;BME280;22296;50.824;5.644;2023-04-06T09:03:38;100750.25;;;15.49;53.30
36260;BME280;22296;50.824;5.644;2023-04-06T09:06:08;100744.50;;;15.46;53.70
36260;BME280;22296;50.824;5.644;2023-04-06T09:08:37;100754.66;;;15.59;53.53
36260;BME280;22296;50.824;5.644;2023-04-06T09:11:04;100751.09;;;15.67;53.30
36260;BME280;22296;50.824;5.644;2023-04-06T09:13:31;100757.44;;;15.67;53.35
36260;BME280;22296;50.824;5.644;2023-04-06T09:15:58;100753.19;;;15.70;53.29
36260;BME280;22296;50.824;5.644;2023-04-06T09:18:28;100746.97;;;15.64;53.25
36260;BME280;22296;50.824;5.644;2023-04-06T09:21:05;100756.47;;;15.63;53.23
36260;BME280;22296;50.824;5.644;2023-04-06T09:23:32;100752.06;;;15.54;53.34
36260;BME280;22296;50.824;5.644;2023-04-06T09:28:43;100751.53;;;15.43;53.70
36260;BME280;22296;50.824;5.644;2023-04-06T09:31:12;100757.28;;;15.47;53.74
36260;BME280;22296;50.824;5.644;2023-04-06T09:33:40;100753.88;;;15.50;53.51
36260;BME280;22296;50.824;5.644;2023-04-06T09:36:07;100750.06;;;15.46;53.59
36260;BME280;22296;50.824;5.644;2023-04-06T09:38:36;100756.25;;;15.43;53.61
36260;BME280;22296;50.824;5.644;2023-04-06T09:41:03;100751.84;;;15.41;53.59
36260;BME280;22296;50.824;5.644;2023-04-06T09:43:30;100757.41;;;15.41;53.63
36260;BME280;22296;50.824;5.644;2023-04-06T09:45:56;100746.78;;;15.35;53.83
36260;BME280;22296;50.824;5.644;2023-04-06T09:48:24;100755.78;;;15.40;53.62
36260;BME280;22296;50.824;5.644;2023-04-06T09:50:56;100749.56;;;15.35;53.79
36260;BME280;22296;50.824;5.644;2023-04-06T09:53:26;100750.34;;;15.35;53.79
36260;BME280;22296;50.824;5.644;2023-04-06T09:55:54;100756.91;;;15.39;53.65
36260;BME280;22296;50.824;5.644;2023-04-06T09:58:23;100750.72;;;15.43;53.53
36260;BME280;22296;50.824;5.644;2023-04-06T10:01:02;100752.81;;;15.37;53.68
36260;BME280;22296;50.824;5.644;2023-04-06T10:03:40;100749.38;;;15.31;53.91
36260;BME280;22296;50.824;5.644;2023-04-06T10:06:12;100751.81;;;15.33;53.66
36260;BME280;22296;50.824;5.644;2023-04-06T10:08:40;100749.56;;;15.44;53.56
36260;BME280;22296;50.824;5.644;2023-04-06T10:11:08;100747.91;;;15.34;53.83
36260;BME280;22296;50.824;5.644;2023-04-06T10:13:35;100752.00;;;15.36;53.77
36260;BME280;22296;50.824;5.644;2023-04-06T10:16:02;100753.66;;;15.37;53.64
36260;BME280;22296;50.824;5.644;2023-04-06T10:18:29;100747.09;;;15.33;53.69
36260;BME280;22296;50.824;5.644;2023-04-06T10:20:57;100749.72;;;15.38;53.77
36260;BME280;22296;50.824;5.644;2023-04-06T10:23:36;100752.81;;;15.37;53.75
36260;BME280;22296;50.824;5.644;2023-04-06T10:26:11;100752.34;;;15.35;53.88
36260;BME280;22296;50.824;5.644;2023-04-06T10:28:40;100753.00;;;15.40;53.61
36260;BME280;22296;50.824;5.644;2023-04-06T10:31:07;100766.06;;;15.40;53.62
36260;BME280;22296;50.824;5.644;2023-04-06T10:33:34;100758.91;;;15.48;53.54
36260;BME280;22296;50.824;5.644;2023-04-06T10:36:10;100756.78;;;15.53;53.40
36260;BME280;22296;50.824;5.644;2023-04-06T10:38:40;100757.59;;;15.54;53.40
36260;BME280;22296;50.824;5.644;2023-04-06T10:41:08;100761.53;;;15.53;53.53
36260;BME280;22296;50.824;5.644;2023-04-06T10:43:35;100750.09;;;15.63;53.23
36260;BME280;22296;50.824;5.644;2023-04-06T10:46:03;100751.41;;;15.57;53.39
36260;BME280;22296;50.824;5.644;2023-04-06T10:48:44;100756.31;;;15.60;53.40
36260;BME280;22296;50.824;5.644;2023-04-06T10:51:14;100753.69;;;15.63;53.37
36260;BME280;22296;50.824;5.644;2023-04-06T10:53:42;100756.66;;;15.67;53.33
36260;BME280;22296;50.824;5.644;2023-04-06T10:56:14;100757.78;;;15.66;53.37
36260;BME280;22296;50.824;5.644;2023-04-06T10:58:53;100761.88;;;15.77;53.45
36260;BME280;22296;50.824;5.644;2023-04-06T11:01:23;100755.97;;;15.87;53.32
36260;BME280;22296;50.824;5.644;2023-04-06T11:03:50;100761.84;;;15.94;53.10
36260;BME280;22296;50.824;5.644;2023-04-06T11:06:18;100750.56;;;15.82;53.24
36260;BME280;22296;50.824;5.644;2023-04-06T11:08:45;100750.25;;;16.01;53.18
36260;BME280;22296;50.824;5.644;2023-04-06T11:11:12;100752.19;;;16.00;53.15
36260;BME280;22296;50.824;5.644;2023-04-06T11:13:46;100746.47;;;16.05;53.12
36260;BME280;22296;50.824;5.644;2023-04-06T11:16:17;100746.94;;;16.07;53.10
36260;BME280;22296;50.824;5.644;2023-04-06T11:18:47;100749.69;;;16.16;52.99
36260;BME280;22296;50.824;5.644;2023-04-06T11:21:14;100745.47;;;16.18;52.92
36260;BME280;22296;50.824;5.644;2023-04-06T11:23:41;100745.44;;;16.27;52.83
36260;BME280;22296;50.824;5.644;2023-04-06T11:26:11;100743.16;;;16.20;53.02
36260;BME280;22296;50.824;5.644;2023-04-06T11:28:41;100742.13;;;16.33;52.78
36260;BME280;22296;50.824;5.644;2023-04-06T11:31:11;100747.03;;;16.36;52.51
36260;BME280;22296;50.824;5.644;2023-04-06T11:33:38;100748.84;;;16.41;52.50
36260;BME280;22296;50.824;5.644;2023-04-06T11:36:05;100734.75;;;16.46;52.53
36260;BME280;22296;50.824;5.644;2023-04-06T11:38:32;100735.56;;;16.55;52.47
36260;BME280;22296;50.824;5.644;2023-04-06T11:41:00;100732.25;;;16.62;52.28
36260;BME280;22296;50.824;5.644;2023-04-06T11:43:30;100732.44;;;16.57;52.28
36260;BME280;22296;50.824;5.644;2023-04-06T11:46:01;100725.25;;;16.47;52.59
36260;BME280;22296;50.824;5.644;2023-04-06T11:48:29;100730.66;;;16.43;52.48
36260;BME280;22296;50.824;5.644;2023-04-06T11:50:58;100729.69;;;16.39;52.54
36260;BME280;22296;50.824;5.644;2023-04-06T11:53:28;100722.00;;;16.36;52.63
36260;BME280;22296;50.824;5.644;2023-04-06T11:55:55;100720.84;;;16.37;52.59
36260;BME280;22296;50.824;5.644;2023-04-06T11:58:22;100718.53;;;16.39;52.67
36260;BME280;22296;50.824;5.644;2023-04-06T12:00:49;100713.81;;;16.40;52.66
36260;BME280;22296;50.824;5.644;2023-04-06T12:03:15;100710.38;;;16.34;52.68
36260;BME280;22296;50.824;5.644;2023-04-06T12:05:43;100713.66;;;16.36;52.65
36260;BME280;22296;50.824;5.644;2023-04-06T12:08:10;100711.38;;;16.38;52.68
36260;BME280;22296;50.824;5.644;2023-04-06T12:10:37;100712.66;;;16.41;52.51
36260;BME280;22296;50.824;5.644;2023-04-06T12:13:03;100714.47;;;16.37;52.63
36260;BME280;22296;50.824;5.644;2023-04-06T12:15:31;100702.50;;;16.36;52.60
36260;BME280;22296;50.824;5.644;2023-04-06T12:17:57;100707.25;;;16.36;52.72
36260;BME280;22296;50.824;5.644;2023-04-06T12:20:24;100704.47;;;16.36;52.78
36260;BME280;22296;50.824;5.644;2023-04-06T12:22:53;100708.06;;;16.36;52.69
36260;BME280;22296;50.824;5.644;2023-04-06T12:25:19;100704.97;;;16.38;52.61
36260;BME280;22296;50.824;5.644;2023-04-06T12:27:46;100706.47;;;16.35;52.81
36260;BME280;22296;50.824;5.644;2023-04-06T12:30:13;100701.56;;;16.32;52.76
36260;BME280;22296;50.824;5.644;2023-04-06T12:32:40;100708.75;;;16.33;52.89
36260;BME280;22296;50.824;5.644;2023-04-06T12:35:08;100706.78;;;16.34;52.90
36260;BME280;22296;50.824;5.644;2023-04-06T12:37:35;100705.00;;;16.29;52.81
36260;BME280;22296;50.824;5.644;2023-04-06T12:40:03;100697.47;;;16.30;52.93
36260;BME280;22296;50.824;5.644;2023-04-06T12:42:30;100701.06;;;16.30;52.90
36260;BME280;22296;50.824;5.644;2023-04-06T12:44:57;100696.00;;;16.32;53.02
36260;BME280;22296;50.824;5.644;2023-04-06T12:47:25;100688.13;;;16.34;52.81
36260;BME280;22296;50.824;5.644;2023-04-06T12:49:52;100696.13;;;16.36;52.77
36260;BME280;22296;50.824;5.644;2023-04-06T12:52:20;100688.13;;;16.34;52.78
36260;BME280;22296;50.824;5.644;2023-04-06T12:54:47;100692.53;;;16.35;52.79
36260;BME280;22296;50.824;5.644;2023-04-06T12:57:16;100687.66;;;16.32;52.97
36260;BME280;22296;50.824;5.644;2023-04-06T12:59:43;100682.75;;;16.29;52.98
36260;BME280;22296;50.824;5.644;2023-04-06T13:02:11;100683.38;;;16.35;52.86
36260;BME280;22296;50.824;5.644;2023-04-06T13:04:38;100686.13;;;16.43;52.57